sensor_id;sensor_type;location;lat;lon;timestamp;pressure;altitude;pressure_sealevel;temperature;humidity
41264;BME280;26998;48.714;9.414;2023-06-14T00:01:49;98276.72;;;12.78;100.00
41264;BME280;26998;48.714;9.414;2023-06-14T00:04:16;98290.78;;;12.73;100.00
41264;BME280;26998;48.714;9.414;2023-06-14T00:06:44;98281.03;;;12.79;100.00
41264;BME280;26998;48.714;9.414;2023-06-14T00:09:12;98276.63;;;12.84;100.00
41264;BME280;26998;48.714;9.414;2023-06-14T00:11:42;98289.81;;;12.67;100.00
41264;BME280;26998;48.714;9.414;2023-06-14T00:14:09;98302.59;;;12.54;100.00
41264;BME280;26998;48.714;9.414;2023-06-14T00:16:36;98307.22;;;12.46;100.00
41264;BME280;26998;48.714;9.414;2023-06-14T00:19:03;98324.84;;;12.36;100.00
41264;BME280;26998;48.714;9.414;2023-06-14T00:21:30;98326.53;;;12.30;100.00
41264;BME280;26998;48.714;9.414;2023-06-14T00:23:58;98323.38;;;12.40;100.00
41264;BME280;26998;48.714;9.414;2023-06-14T00:26:25;98323.41;;;12.52;100.00
41264;BME280;26998;48.714;9.414;2023-06-14T00:28:53;98313.91;;;12.56;100.00
41264;BME280;26998;48.714;9.414;2023-06-14T00:31:19;98305.56;;;12.64;100.00
41264;BME280;26998;48.714;9.414;2023-06-14T00:33:46;98316.72;;;12.42;100.00
41264;BME280;26998;48.714;9.414;2023-06-14T00:36:13;98318.38;;;12.25;100.00
41264;BME280;26998;48.714;9.414;2023-06-14T00:38:39;98343.63;;;12.11;100.00
41264;BME280;26998;48.714;9.414;2023-06-14T00:41:06;98349.88;;;12.05;100.00
41264;BME280;26998;48.714;9.414;2023-06-14T00:43:33;98336.72;;;12.03;100.00
41264;BME280;26998;48.714;9.414;2023-06-14T00:46:00;98315.34;;;12.15;100.00
41264;BME280;26998;48.714;9.414;2023-06-14T00:48:28;98313.66;;;12.20;100.00
41264;BME280;26998;48.714;9.414;2023-06-14T00:50:56;98319.00;;;12.20;100.00
41264;BME280;26998;48.714;9.414;2023-06-14T00:53:23;98326.84;;;12.22;100.00
41264;BME280;26998;48.714;9.414;2023-06-14T00:55:50;98323.47;;;12.27;100.00
41264;BME280;26998;48.714;9.414;2023-06-14T00:58:21;98314.78;;;12.31;100.00
41264;BME280;26998;48.714;9.414;2023-06-14T01:00:49;98307.34;;;12.33;100.00
41264;BME280;26998;48.714;9.414;2023-06-14T01:03:15;98306.31;;;12.34;100.00
41264;BME280;26998;48.714;9.414;2023-06-14T01:05:43;98303.56;;;12.41;100.00
41264;BME280;26998;48.714;9.414;2023-06-14T01:08:31;98291.41;;;12.38;100.00
41264;BME280;26998;48.714;9.414;2023-06-14T01:11:12;98296.16;;;12.36;100.00
41264;BME280;26998;48.714;9.414;2023-06-14T01:13:42;98310.75;;;12.22;100.00
41264;BME280;26998;48.714;9.414;2023-06-14T01:16:10;98336.00;;;11.89;100.00
41264;BME280;26998;48.714;9.414;2023-06-14T01:18:37;98363.06;;;11.74;100.00
41264;BME280;26998;48.714;9.414;2023-06-14T01:21:03;98373.22;;;11.66;100.00
41264;BME280;26998;48.714;9.414;2023-06-14T01:23:31;98398.88;;;11.42;100.00
41264;BME280;26998;48.714;9.414;2023-06-14T01:25:59;98418.09;;;11.32;100.00
41264;BME280;26998;48.714;9.414;2023-06-14T01:28:26;98435.56;;;11.35;100.00
41264;BME280;26998;48.714;9.414;2023-06-14T01:30:54;98445.25;;;11.29;100.00
41264;BME280;26998;48.714;9.414;2023-06-14T01:33:22;98450.38;;;11.30;100.00
41264;BME280;26998;48.714;9.414;2023-06-14T01:35:52;98455.56;;;11.25;100.00
41264;BME280;26998;48.714;9.414;2023-06-14T01:38:24;98459.69;;;11.21;100.00
41264;BME280;26998;48.714;9.414;2023-06-14T01:40:53;98459.06;;;11.26;100.00
41264;BME280;26998;48.714;9.414;2023-06-14T01:43:21;98448.78;;;11.23;100.00
41264;BME280;26998;48.714;9.414;2023-06-14T01:45:49;98442.41;;;11.24;100.00
41264;BME280;26998;48.714;9.414;2023-06-14T01:48:18;98430.03;;;11.29;100.00
41264;BME280;26998;48.714;9.414;2023-06-14T01:50:48;98428.13;;;11.37;100.00
41264;BME280;26998;48.714;9.414;2023-06-14T01:53:15;98415.75;;;11.42;100.00
41264;BME280;26998;48.714;9.414;2023-06-14T01:55:42;98419.88;;;11.45;100.00
41264;BME280;26998;48.714;9.414;2023-06-14T01:58:10;98419.22;;;11.49;100.00
41264;BME280;26998;48.714;9.414;2023-06-14T02:00:37;98412.50;;;11.40;100.00
41264;BME280;26998;48.714;9.414;2023-06-14T02:03:04;98423.44;;;11.32;100.00
41264;BME280;26998;48.714;9.414;2023-06-14T02:05:30;98419.91;;;11.38;100.00
41264;BME280;26998;48.714;9.414;2023-06-14T02:07:57;98424.84;;;11.41;100.00
41264;BME280;26998;48.714;9.414;2023-06-14T02:10:24;98424.59;;;11.43;100.00
41264;BME280;26998;48.714;9.414;2023-06-14T02:12:51;98421.13;;;11.42;100.00
41264;BME280;26998;48.714;9.414;2023-06-14T02:15:17;98425.59;;;11.48;100.00
41264;BME280;26998;48.714;9.414;2023-06-14T02:17:44;98435.09;;;11.44;100.00
41264;BME280;26998;48.714;9.414;2023-06-14T02:20:11;98422.72;;;11.50;100.00
41264;BME280;26998;48.714;9.414;2023-06-14T02:22:39;98425.59;;;11.48;100.00
41264;BME280;26998;48.714;9.414;2023-06-14T02:25:06;98431.19;;;11.47;100.00
41264;BME280;26998;48.714;9.414;2023-06-14T02:27:33;98421.31;;;11.47;100.00
41264;BME280;26998;48.714;9.414;2023-06-14T02:29:59;98417.41;;;11.43;100.00
41264;BME280;26998;48.714;9.414;2023-06-14T02:32:26;98420.09;;;11.43;100.00
41264;BME280;26998;48.714;9.414;2023-06-14T02:34:53;98418.63;;;11.47;100.00
41264;BME280;26998;48.714;9.414;2023-06-14T02:37:20;98414.75;;;11.43;100.00
41264;BME280;26998;48.714;9.414;2023-06-14T02:39:47;98428.81;;;11.25;100.00
41264;BME280;26998;48.714;9.414;2023-06-14T02:42:13;98443.03;;;11.19;100.00
41264;BME280;26998;48.714;9.414;2023-06-14T02:44:40;98455.56;;;11.25;100.00
41264;BME280;26998;48.714;9.414;2023-06-14T02:47:07;98464.84;;;11.23;100.00
41264;BME280;26998;48.714;9.414;2023-06-14T02:49:33;98450.41;;;11.24;100.00
41264;BME280;26998;48.714;9.414;2023-06-14T02:52:00;98460.34;;;11.17;100.00
41264;BME280;26998;48.714;9.414;2023-06-14T02:54:27;98464.25;;;11.14;100.00
41264;BME280;26998;48.714;9.414;2023-06-14T02:56:54;98476.19;;;11.12;100.00
41264;BME280;26998;48.714;9.414;2023-06-14T02:59:20;98481.34;;;11.06;100.00
41264;BME280;26998;48.714;9.414;2023-06-14T03:01:47;98485.47;;;11.02;100.00
41264;BME280;26998;48.714;9.414;2023-06-14T03:04:14;98506.69;;;10.91;100.00
41264;BME280;26998;48.714;9.414;2023-06-14T03:06:41;98503.97;;;11.04;100.00
41264;BME280;26998;48.714;9.414;2023-06-14T03:09:08;98493.47;;;11.02;100.00
41264;BME280;26998;48.714;9.414;2023-06-14T03:11:35;98501.34;;;10.97;100.00
41264;BME280;26998;48.714;9.414;2023-06-14T03:14:02;98502.19;;;10.84;100.00
41264;BME280;26998;48.714;9.414;2023-06-14T03:16:29;98508.94;;;10.87;100.00
41264;BME280;26998;48.714;9.414;2023-06-14T03:18:56;98508.94;;;10.87;100.00
41264;BME280;26998;48.714;9.414;2023-06-14T03:21:23;98504.84;;;10.84;100.00
41264;BME280;26998;48.714;9.414;2023-06-14T03:23:50;98518.03;;;10.73;100.00
41264;BME280;26998;48.714;9.414;2023-06-14T03:26:16;98526.03;;;10.79;100.00
41264;BME280;26998;48.714;9.414;2023-06-14T03:28:46;98533.44;;;10.64;100.00
41264;BME280;26998;48.714;9.414;2023-06-14T03:31:13;98543.50;;;10.42;100.00
41264;BME280;26998;48.714;9.414;2023-06-14T03:33:40;98573.66;;;10.23;100.00
41264;BME280;26998;48.714;9.414;2023-06-14T03:36:07;98592.16;;;10.24;100.00
41264;BME280;26998;48.714;9.414;2023-06-14T03:38:33;98599.97;;;10.26;100.00
41264;BME280;26998;48.714;9.414;2023-06-14T03:41:00;98592.59;;;10.28;100.00
41264;BME280;26998;48.714;9.414;2023-06-14T03:43:27;98577.41;;;10.35;100.00
41264;BME280;26998;48.714;9.414;2023-06-14T03:45:54;98567.38;;;10.50;100.00
41264;BME280;26998;48.714;9.414;2023-06-14T03:48:20;98574.53;;;10.43;100.00
41264;BME280;26998;48.714;9.414;2023-06-14T03:50:47;98589.97;;;10.41;100.00
41264;BME280;26998;48.714;9.414;2023-06-14T03:53:14;98605.94;;;10.28;100.00
41264;BME280;26998;48.714;9.414;2023-06-14T03:55:41;98617.63;;;10.20;100.00
41264;BME280;26998;48.714;9.414;2023-06-14T03:58:10;98626.84;;;10.17;100.00
41264;BME280;26998;48.714;9.414;2023-06-14T04:00:37;98618.25;;;10.22;100.00
41264;BME280;26998;48.714;9.414;2023-06-14T04:03:04;98601.44;;;10.28;100.00
41264;BME280;26998;48.714;9.414;2023-06-14T04:05:30;98607.00;;;10.33;100.00
41264;BME280;26998;48.714;9.414;2023-06-14T04:07:57;98598.78;;;10.35;100.00
41264;BME280;26998;48.714;9.414;2023-06-14T04:10:24;98583.59;;;10.49;100.00
41264;BME280;26998;48.714;9.414;2023-06-14T04:12:51;98581.31;;;10.59;100.00
41264;BME280;26998;48.714;9.414;2023-06-14T04:15:17;98570.22;;;10.62;100.00
41264;BME280;26998;48.714;9.414;2023-06-14T04:17:47;98561.41;;;10.75;100.00
41264;BME280;26998;48.714;9.414;2023-06-14T04:20:15;98562.41;;;10.80;100.00
41264;BME280;26998;48.714;9.414;2023-06-14T04:22:42;98559.72;;;10.87;100.00
41264;BME280;26998;48.714;9.414;2023-06-14T04:25:09;98549.25;;;10.99;100.00
41264;BME280;26998;48.714;9.414;2023-06-14T04:27:36;98539.28;;;11.32;100.00
41264;BME280;26998;48.714;9.414;2023-06-14T04:30:03;98452.88;;;12.59;100.00
41264;BME280;26998;48.714;9.414;2023-06-14T04:32:30;98381.78;;;14.07;100.00
41264;BME280;26998;48.714;9.414;2023-06-14T04:34:57;98355.34;;;15.27;100.00
41264;BME280;26998;48.714;9.414;2023-06-14T04:37:24;98336.22;;;15.57;100.00
41264;BME280;26998;48.714;9.414;2023-06-14T04:39:51;98335.28;;;16.13;97.93
41264;BME280;26998;48.714;9.414;2023-06-14T04:42:18;98334.81;;;15.83;100.00
41264;BME280;26998;48.714;9.414;2023-06-14T04:44:44;98344.28;;;15.68;100.00
41264;BME280;26998;48.714;9.414;2023-06-14T04:47:11;98328.97;;;17.29;97.92
41264;BME280;26998;48.714;9.414;2023-06-14T04:49:38;98350.06;;;17.87;87.00
41264;BME280;26998;48.714;9.414;2023-06-14T04:52:05;98344.06;;;16.81;94.57
41264;BME280;26998;48.714;9.414;2023-06-14T04:54:32;98337.84;;;16.20;98.88
41264;BME280;26998;48.714;9.414;2023-06-14T04:57:04;98347.84;;;17.51;95.81
41264;BME280;26998;48.714;9.414;2023-06-14T04:59:31;98349.88;;;16.51;97.41
41264;BME280;26998;48.714;9.414;2023-06-14T05:01:57;98359.69;;;16.57;97.89
41264;BME280;26998;48.714;9.414;2023-06-14T05:04:24;98363.03;;;17.08;95.64
41264;BME280;26998;48.714;9.414;2023-06-14T05:06:51;98359.84;;;17.93;89.11
41264;BME280;26998;48.714;9.414;2023-06-14T05:09:18;98365.78;;;19.22;84.08
41264;BME280;26998;48.714;9.414;2023-06-14T05:11:44;98373.31;;;19.10;75.08
41264;BME280;26998;48.714;9.414;2023-06-14T05:14:11;98366.31;;;18.66;78.34
41264;BME280;26998;48.714;9.414;2023-06-14T05:16:38;98369.69;;;19.67;74.32
41264;BME280;26998;48.714;9.414;2023-06-14T05:19:04;98366.81;;;19.11;79.33
41264;BME280;26998;48.714;9.414;2023-06-14T05:21:32;98376.78;;;20.04;71.97
41264;BME280;26998;48.714;9.414;2023-06-14T05:24:04;98370.78;;;20.63;66.63
41264;BME280;26998;48.714;9.414;2023-06-14T05:26:31;98368.53;;;20.86;68.07
41264;BME280;26998;48.714;9.414;2023-06-14T05:28:58;98371.34;;;19.78;74.53
41264;BME280;26998;48.714;9.414;2023-06-14T05:31:27;98370.47;;;19.47;76.36
41264;BME280;26998;48.714;9.414;2023-06-14T05:33:56;98367.53;;;19.74;77.92
41264;BME280;26998;48.714;9.414;2023-06-14T05:36:23;98373.53;;;20.53;66.95
41264;BME280;26998;48.714;9.414;2023-06-14T05:38:50;98370.47;;;20.49;64.97
41264;BME280;26998;48.714;9.414;2023-06-14T05:41:16;98374.03;;;20.40;66.28
41264;BME280;26998;48.714;9.414;2023-06-14T05:43:43;98367.50;;;20.51;63.59
41264;BME280;26998;48.714;9.414;2023-06-14T05:46:10;98370.28;;;19.84;70.78
41264;BME280;26998;48.714;9.414;2023-06-14T05:48:36;98378.41;;;20.25;69.66
41264;BME280;26998;48.714;9.414;2023-06-14T05:51:03;98376.78;;;18.95;78.40
41264;BME280;26998;48.714;9.414;2023-06-14T05:53:30;98369.69;;;18.41;85.54
41264;BME280;26998;48.714;9.414;2023-06-14T05:55:56;98364.72;;;18.28;86.80
41264;BME280;26998;48.714;9.414;2023-06-14T05:58:23;98364.31;;;17.77;90.59
41264;BME280;26998;48.714;9.414;2023-06-14T06:00:49;98365.28;;;19.41;82.50
41264;BME280;26998;48.714;9.414;2023-06-14T06:03:16;98364.09;;;21.05;67.80
41264;BME280;26998;48.714;9.414;2023-06-14T06:05:43;98371.81;;;20.83;66.32
41264;BME280;26998;48.714;9.414;2023-06-14T06:08:09;98377.31;;;20.16;72.65
41264;BME280;26998;48.714;9.414;2023-06-14T06:10:36;98381.69;;;21.23;62.75
41264;BME280;26998;48.714;9.414;2023-06-14T06:13:02;98380.03;;;20.52;65.55
41264;BME280;26998;48.714;9.414;2023-06-14T06:15:29;98376.09;;;20.99;66.22
41264;BME280;26998;48.714;9.414;2023-06-14T06:17:55;98379.19;;;21.37;58.30
41264;BME280;26998;48.714;9.414;2023-06-14T06:20:23;98386.31;;;22.17;52.31
41264;BME280;26998;48.714;9.414;2023-06-14T06:22:50;98382.25;;;21.15;58.32
41264;BME280;26998;48.714;9.414;2023-06-14T06:25:16;98389.03;;;21.22;63.12
41264;BME280;26998;48.714;9.414;2023-06-14T06:27:44;98387.09;;;20.02;67.41
41264;BME280;26998;48.714;9.414;2023-06-14T06:30:11;98375.13;;;19.67;75.13
41264;BME280;26998;48.714;9.414;2023-06-14T06:32:38;98380.03;;;20.26;69.00
41264;BME280;26998;48.714;9.414;2023-06-14T06:35:05;98386.00;;;19.98;74.20
41264;BME280;26998;48.714;9.414;2023-06-14T06:37:31;98379.22;;;20.11;70.58
41264;BME280;26998;48.714;9.414;2023-06-14T06:39:59;98376.25;;;21.78;61.63
41264;BME280;26998;48.714;9.414;2023-06-14T06:42:28;98377.84;;;22.52;55.11
41264;BME280;26998;48.714;9.414;2023-06-14T06:44:55;98379.09;;;21.97;55.73
41264;BME280;26998;48.714;9.414;2023-06-14T06:47:22;98385.06;;;21.99;53.63
41264;BME280;26998;48.714;9.414;2023-06-14T06:49:48;98386.16;;;22.37;54.02
41264;BME280;26998;48.714;9.414;2023-06-14T06:52:19;98390.19;;;23.17;48.82
41264;BME280;26998;48.714;9.414;2023-06-14T06:54:45;98397.88;;;22.32;53.02
41264;BME280;26998;48.714;9.414;2023-06-14T06:57:12;98399.22;;;21.96;54.59
41264;BME280;26998;48.714;9.414;2023-06-14T06:59:39;98391.84;;;22.65;52.73
41264;BME280;26998;48.714;9.414;2023-06-14T07:02:07;98400.94;;;21.42;56.62
41264;BME280;26998;48.714;9.414;2023-06-14T07:04:34;98400.25;;;22.97;50.52
41264;BME280;26998;48.714;9.414;2023-06-14T07:07:01;98401.69;;;23.14;48.00
41264;BME280;26998;48.714;9.414;2023-06-14T07:09:27;98400.56;;;23.39;46.94
41264;BME280;26998;48.714;9.414;2023-06-14T07:11:54;98402.75;;;23.80;45.53
41264;BME280;26998;48.714;9.414;2023-06-14T07:14:21;98408.19;;;23.98;43.10
41264;BME280;26998;48.714;9.414;2023-06-14T07:16:47;98408.19;;;23.98;42.72
41264;BME280;26998;48.714;9.414;2023-06-14T07:19:14;98408.44;;;23.40;43.75
41264;BME280;26998;48.714;9.414;2023-06-14T07:21:41;98415.84;;;22.63;46.04
41264;BME280;26998;48.714;9.414;2023-06-14T07:24:07;98411.59;;;22.80;46.35
41264;BME280;26998;48.714;9.414;2023-06-14T07:26:35;98414.56;;;22.21;47.85
41264;BME280;26998;48.714;9.414;2023-06-14T07:29:02;98414.59;;;22.16;49.63
41264;BME280;26998;48.714;9.414;2023-06-14T07:31:29;98419.03;;;21.62;48.41
41264;BME280;26998;48.714;9.414;2023-06-14T07:33:55;98412.28;;;20.43;54.11
41264;BME280;26998;48.714;9.414;2023-06-14T07:36:22;98413.94;;;20.75;54.74
41264;BME280;26998;48.714;9.414;2023-06-14T07:38:49;98413.00;;;21.10;54.46
41264;BME280;26998;48.714;9.414;2023-06-14T07:41:16;98422.13;;;21.40;52.52
41264;BME280;26998;48.714;9.414;2023-06-14T07:43:43;98415.00;;;21.54;51.54
41264;BME280;26998;48.714;9.414;2023-06-14T07:46:09;98411.81;;;21.37;51.21
41264;BME280;26998;48.714;9.414;2023-06-14T07:48:37;98414.19;;;20.73;55.28
41264;BME280;26998;48.714;9.414;2023-06-14T07:51:04;98420.59;;;21.18;53.10
41264;BME280;26998;48.714;9.414;2023-06-14T07:53:31;98415.63;;;21.31;51.54
41264;BME280;26998;48.714;9.414;2023-06-14T07:55:57;98418.09;;;21.82;50.03
41264;BME280;26998;48.714;9.414;2023-06-14T07:58:26;98412.19;;;21.75;49.29
41264;BME280;26998;48.714;9.414;2023-06-14T08:00:53;98419.22;;;21.81;49.96
41264;BME280;26998;48.714;9.414;2023-06-14T08:03:20;98419.88;;;21.57;49.81
41264;BME280;26998;48.714;9.414;2023-06-14T08:05:47;98421.66;;;21.22;53.30
41264;BME280;26998;48.714;9.414;2023-06-14T08:08:16;98412.22;;;21.64;50.76
41264;BME280;26998;48.714;9.414;2023-06-14T08:10:42;98420.03;;;21.76;49.51
41264;BME280;26998;48.714;9.414;2023-06-14T08:13:09;98413.13;;;21.94;48.44
41264;BME280;26998;48.714;9.414;2023-06-14T08:15:36;98413.56;;;21.67;49.13
41264;BME280;26998;48.714;9.414;2023-06-14T08:18:04;98413.59;;;21.62;49.91
41264;BME280;26998;48.714;9.414;2023-06-14T08:20:30;98414.66;;;22.05;48.10
41264;BME280;26998;48.714;9.414;2023-06-14T08:22:57;98413.91;;;22.68;47.79
41264;BME280;26998;48.714;9.414;2023-06-14T08:25:24;98407.94;;;22.90;44.48
41264;BME280;26998;48.714;9.414;2023-06-14T08:27:50;98418.84;;;22.90;44.67
41264;BME280;26998;48.714;9.414;2023-06-14T08:30:17;98424.91;;;23.54;45.00
41264;BME280;26998;48.714;9.414;2023-06-14T08:32:44;98419.00;;;23.66;43.30
41264;BME280;26998;48.714;9.414;2023-06-14T08:35:11;98432.44;;;23.62;43.83
41264;BME280;26998;48.714;9.414;2023-06-14T08:37:39;98430.19;;;23.45;42.87
41264;BME280;26998;48.714;9.414;2023-06-14T08:40:17;98431.25;;;23.49;42.73
41264;BME280;26998;48.714;9.414;2023-06-14T08:42:44;98428.78;;;23.91;40.67
41264;BME280;26998;48.714;9.414;2023-06-14T08:45:12;98428.53;;;23.49;40.58
41264;BME280;26998;48.714;9.414;2023-06-14T08:47:40;98435.41;;;23.85;40.63
41264;BME280;26998;48.714;9.414;2023-06-14T08:50:08;98437.34;;;23.84;41.60
41264;BME280;26998;48.714;9.414;2023-06-14T08:52:54;98430.31;;;23.97;40.41
41264;BME280;26998;48.714;9.414;2023-06-14T08:55:23;98428.25;;;24.08;40.45
41264;BME280;26998;48.714;9.414;2023-06-14T08:57:49;98436.91;;;23.77;39.61
41264;BME280;26998;48.714;9.414;2023-06-14T09:00:17;98431.78;;;24.27;39.21
41264;BME280;26998;48.714;9.414;2023-06-14T09:02:44;98431.69;;;24.65;38.75
41264;BME280;26998;48.714;9.414;2023-06-14T09:05:11;98432.28;;;24.29;38.70
41264;BME280;26998;48.714;9.414;2023-06-14T09:07:37;98432.16;;;24.20;38.55
41264;BME280;26998;48.714;9.414;2023-06-14T09:10:09;98426.75;;;23.16;40.17
41264;BME280;26998;48.714;9.414;2023-06-14T09:12:36;98425.81;;;22.72;41.43
41264;BME280;26998;48.714;9.414;2023-06-14T09:15:03;98424.59;;;23.37;39.28
41264;BME280;26998;48.714;9.414;2023-06-14T09:17:32;98432.38;;;23.00;39.41
41264;BME280;26998;48.714;9.414;2023-06-14T09:20:00;98428.19;;;22.21;41.17
41264;BME280;26998;48.714;9.414;2023-06-14T09:22:29;98424.41;;;22.11;41.20
41264;BME280;26998;48.714;9.414;2023-06-14T09:24:56;98421.13;;;22.20;40.80
41264;BME280;26998;48.714;9.414;2023-06-14T09:27:22;98423.16;;;22.96;39.70
41264;BME280;26998;48.714;9.414;2023-06-14T09:29:50;98431.94;;;23.36;37.73
41264;BME280;26998;48.714;9.414;2023-06-14T09:32:17;98429.97;;;23.61;37.29
41264;BME280;26998;48.714;9.414;2023-06-14T09:34:45;98445.06;;;24.15;36.48
41264;BME280;26998;48.714;9.414;2023-06-14T09:37:12;98438.97;;;24.56;35.30
41264;BME280;26998;48.714;9.414;2023-06-14T09:39:51;98443.81;;;23.45;35.71
41264;BME280;26998;48.714;9.414;2023-06-14T09:42:18;98429.09;;;23.46;36.61
41264;BME280;26998;48.714;9.414;2023-06-14T09:44:47;98438.09;;;23.23;37.15
41264;BME280;26998;48.714;9.414;2023-06-14T09:47:17;98434.81;;;23.88;35.82
41264;BME280;26998;48.714;9.414;2023-06-14T09:49:44;98438.13;;;24.04;36.06
41264;BME280;26998;48.714;9.414;2023-06-14T09:52:16;98435.56;;;24.92;34.96
41264;BME280;26998;48.714;9.414;2023-06-14T09:54:45;98437.44;;;24.63;35.45
41264;BME280;26998;48.714;9.414;2023-06-14T09:57:14;98442.81;;;24.36;30.98
41264;BME280;26998;48.714;9.414;2023-06-14T09:59:43;98433.34;;;25.07;32.13
41264;BME280;26998;48.714;9.414;2023-06-14T10:02:14;98437.03;;;25.44;32.22
41264;BME280;26998;48.714;9.414;2023-06-14T10:04:50;98441.44;;;25.82;31.10
41264;BME280;26998;48.714;9.414;2023-06-14T10:07:19;98440.72;;;25.76;31.05
41264;BME280;26998;48.714;9.414;2023-06-14T10:09:47;98440.97;;;26.47;30.37
41264;BME280;26998;48.714;9.414;2023-06-14T10:12:13;98434.81;;;26.19;29.99
41264;BME280;26998;48.714;9.414;2023-06-14T10:14:40;98434.81;;;26.41;30.01
41264;BME280;26998;48.714;9.414;2023-06-14T10:17:09;98439.78;;;25.94;31.49
41264;BME280;26998;48.714;9.414;2023-06-14T10:19:48;98430.34;;;25.37;31.79
41264;BME280;26998;48.714;9.414;2023-06-14T10:22:21;98430.22;;;24.86;32.92
41264;BME280;26998;48.714;9.414;2023-06-14T10:24:50;98426.28;;;25.06;31.77
41264;BME280;26998;48.714;9.414;2023-06-14T10:27:17;98431.56;;;25.30;31.31
41264;BME280;26998;48.714;9.414;2023-06-14T10:32:20;98422.53;;;25.44;31.22
41264;BME280;26998;48.714;9.414;2023-06-14T10:35:15;98420.66;;;26.17;31.07
41264;BME280;26998;48.714;9.414;2023-06-14T10:37:46;98416.34;;;26.02;31.06
41264;BME280;26998;48.714;9.414;2023-06-14T10:40:30;98429.28;;;25.60;32.06
41264;BME280;26998;48.714;9.414;2023-06-14T10:42:57;98435.22;;;24.33;32.78
41264;BME280;26998;48.714;9.414;2023-06-14T10:45:24;98429.97;;;23.85;34.15
41264;BME280;26998;48.714;9.414;2023-06-14T10:47:50;98423.66;;;23.65;34.63
41264;BME280;26998;48.714;9.414;2023-06-14T10:50:17;98422.66;;;23.37;35.02
41264;BME280;26998;48.714;9.414;2023-06-14T10:52:44;98420.31;;;23.07;36.03
41264;BME280;26998;48.714;9.414;2023-06-14T10:55:18;98415.91;;;23.54;35.65
41264;BME280;26998;48.714;9.414;2023-06-14T10:57:51;98414.03;;;23.73;35.24
41264;BME280;26998;48.714;9.414;2023-06-14T11:00:22;98414.13;;;23.44;35.73
41264;BME280;26998;48.714;9.414;2023-06-14T11:02:56;98421.53;;;23.19;36.30
41264;BME280;26998;48.714;9.414;2023-06-14T11:05:29;98418.84;;;23.38;35.43
41264;BME280;26998;48.714;9.414;2023-06-14T11:08:26;98415.47;;;23.65;35.88
41264;BME280;26998;48.714;9.414;2023-06-14T11:10:56;98412.31;;;24.15;35.56
41264;BME280;26998;48.714;9.414;2023-06-14T11:13:27;98418.31;;;24.50;34.37
41264;BME280;26998;48.714;9.414;2023-06-14T11:15:57;98420.53;;;23.96;35.02
41264;BME280;26998;48.714;9.414;2023-06-14T11:18:24;98415.03;;;24.15;34.83
41264;BME280;26998;48.714;9.414;2023-06-14T11:20:51;98418.22;;;24.03;34.92
41264;BME280;26998;48.714;9.414;2023-06-14T11:23:17;98416.66;;;24.16;34.06
41264;BME280;26998;48.714;9.414;2023-06-14T11:25:49;98418.56;;;24.81;32.87
41264;BME280;26998;48.714;9.414;2023-06-14T11:28:16;98415.34;;;24.93;32.71
41264;BME280;26998;48.714;9.414;2023-06-14T11:30:43;98413.56;;;24.55;32.70
41264;BME280;26998;48.714;9.414;2023-06-14T11:33:10;98406.72;;;25.41;31.67
41264;BME280;26998;48.714;9.414;2023-06-14T11:35:37;98405.75;;;25.87;31.87
41264;BME280;26998;48.714;9.414;2023-06-14T11:38:03;98406.88;;;26.08;30.92
41264;BME280;26998;48.714;9.414;2023-06-14T11:40:30;98413.75;;;25.19;31.63
41264;BME280;26998;48.714;9.414;2023-06-14T11:43:01;98414.06;;;24.57;32.67
41264;BME280;26998;48.714;9.414;2023-06-14T11:45:29;98408.13;;;24.36;33.39
41264;BME280;26998;48.714;9.414;2023-06-14T11:47:58;98406.69;;;24.25;33.61
41264;BME280;26998;48.714;9.414;2023-06-14T11:50:27;98413.41;;;24.14;34.29
41264;BME280;26998;48.714;9.414;2023-06-14T11:52:58;98409.69;;;24.24;34.06
41264;BME280;26998;48.714;9.414;2023-06-14T11:55:25;98405.16;;;24.33;34.92
41264;BME280;26998;48.714;9.414;2023-06-14T11:57:55;98410.91;;;23.80;34.11
41264;BME280;26998;48.714;9.414;2023-06-14T12:00:26;98407.53;;;23.69;33.65
41264;BME280;26998;48.714;9.414;2023-06-14T12:02:55;98407.97;;;23.76;34.28
41264;BME280;26998;48.714;9.414;2023-06-14T12:05:22;98402.63;;;23.47;33.86
41264;BME280;26998;48.714;9.414;2023-06-14T12:07:50;98407.09;;;23.81;33.60
41264;BME280;26998;48.714;9.414;2023-06-14T12:10:17;98407.19;;;24.27;33.50
41264;BME280;26998;48.714;9.414;2023-06-14T12:12:43;98404.47;;;24.27;33.43
41264;BME280;26998;48.714;9.414;2023-06-14T12:15:12;98403.75;;;24.35;33.23
41264;BME280;26998;48.714;9.414;2023-06-14T12:17:42;98405.78;;;24.49;32.77
41264;BME280;26998;48.714;9.414;2023-06-14T12:20:09;98405.50;;;24.78;32.53
41264;BME280;26998;48.714;9.414;2023-06-14T12:22:37;98404.06;;;24.34;33.13
41264;BME280;26998;48.714;9.414;2023-06-14T12:25:06;98406.59;;;24.30;33.04
41264;BME280;26998;48.714;9.414;2023-06-14T12:27:33;98404.38;;;24.79;32.38
41264;BME280;26998;48.714;9.414;2023-06-14T12:30:00;98396.91;;;24.98;32.20
41264;BME280;26998;48.714;9.414;2023-06-14T12:32:28;98396.53;;;25.19;32.01
41264;BME280;26998;48.714;9.414;2023-06-14T12:34:55;98393.47;;;25.34;31.36
41264;BME280;26998;48.714;9.414;2023-06-14T12:37:23;98396.63;;;25.27;30.92
41264;BME280;26998;48.714;9.414;2023-06-14T12:39:50;98392.75;;;25.78;30.96
41264;BME280;26998;48.714;9.414;2023-06-14T12:42:17;98389.81;;;25.89;31.10
41264;BME280;26998;48.714;9.414;2023-06-14T12:44:43;98391.25;;;25.36;31.45
41264;BME280;26998;48.714;9.414;2023-06-14T12:47:10;98395.34;;;24.51;31.95
41264;BME280;26998;48.714;9.414;2023-06-14T12:49:38;98397.13;;;24.09;32.66
41264;BME280;26998;48.714;9.414;2023-06-14T12:52:05;98395.50;;;23.70;33.46
41264;BME280;26998;48.714;9.414;2023-06-14T12:54:32;98403.38;;;23.52;33.66
41264;BME280;26998;48.714;9.414;2023-06-14T12:57:06;98398.69;;;23.77;34.55
41264;BME280;26998;48.714;9.414;2023-06-14T12:59:33;98398.81;;;23.86;33.45
41264;BME280;26998;48.714;9.414;2023-06-14T13:02:12;98412.47;;;23.86;33.30
41264;BME280;26998;48.714;9.414;2023-06-14T13:04:39;98404.84;;;24.20;33.68